createdAt,value
2022-10-11T00:04:59.256Z,58.59
2022-10-11T00:10:01.962Z,60.17
2022-10-11T00:15:05.781Z,60.68
2022-10-11T00:20:09.661Z,61.60
2022-10-11T00:25:13.355Z,68.52
2022-10-11T00:30:16.117Z,57.18
2022-10-11T00:35:18.807Z,54.23
2022-10-11T00:40:22.041Z,55.50
2022-10-11T00:45:27.893Z,57.69
2022-10-11T00:50:34.276Z,60.09
2022-10-11T00:55:48.348Z,61.15
2022-10-11T01:00:52.049Z,67.57
2022-10-11T01:05:55.874Z,61.26
2022-10-11T01:10:59.212Z,51.66
2022-10-11T01:16:33.741Z,53.50
2022-10-11T01:21:52.551Z,55.51
2022-10-11T01:27:29.324Z,58.20
2022-10-11T01:32:59.328Z,59.97
2022-10-11T01:38:11.396Z,69.74
2022-10-11T01:43:16.433Z,60.75
2022-10-11T01:48:19.426Z,51.46
2022-10-11T01:53:46.484Z,53.11
2022-10-11T01:58:58.333Z,55.09
2022-10-11T02:04:39.629Z,57.30
2022-10-11T02:09:52.547Z,59.22
2022-10-11T02:14:56.736Z,69.22
2022-10-11T02:20:03.890Z,60.37
2022-10-11T02:25:13.237Z,52.59
2022-10-11T02:30:16.909Z,53.83
2022-10-11T02:35:24.370Z,55.21
2022-10-11T02:40:31.080Z,56.74
2022-10-11T02:45:42.193Z,58.64
2022-10-11T02:50:45.112Z,69.00
2022-10-11T02:55:49.641Z,61.39
2022-10-11T03:00:52.526Z,52.28
2022-10-11T03:06:03.866Z,53.09
2022-10-11T03:11:07.045Z,56.72
2022-10-11T03:16:10.163Z,59.37
2022-10-11T03:21:13.559Z,69.67
2022-10-11T03:26:16.201Z,63.14
2022-10-11T03:31:18.949Z,54.00
2022-10-11T03:36:21.963Z,55.43
2022-10-11T03:41:24.663Z,57.29
2022-10-11T03:46:27.269Z,60.90
2022-10-11T03:51:30.370Z,68.57
2022-10-11T03:56:33.065Z,58.88
2022-10-11T04:01:38.209Z,53.47
2022-10-11T04:06:40.906Z,56.90
2022-10-11T04:11:43.621Z,62.76
2022-10-11T04:16:46.249Z,58.96
2022-10-11T04:21:49.326Z,56.99
2022-10-11T04:26:52.127Z,60.82
2022-10-11T04:31:54.823Z,67.57
2022-10-11T04:36:57.524Z,61.98
2022-10-11T04:42:00.225Z,53.97
2022-10-11T04:47:03.012Z,56.41
2022-10-11T04:52:06.047Z,60.18
2022-10-11T04:57:08.709Z,64.57
2022-10-11T05:02:11.389Z,57.65
2022-10-11T05:07:14.333Z,60.89
2022-10-11T05:12:17.029Z,64.65
2022-10-11T05:17:19.684Z,55.95
2022-10-11T05:22:22.303Z,57.56
2022-10-11T05:27:25.542Z,64.29
2022-10-11T05:32:28.329Z,57.57
2022-10-11T05:37:31.420Z,57.83
2022-10-11T05:42:34.270Z,63.93
2022-10-11T05:47:37.205Z,59.57
2022-10-11T05:52:39.880Z,58.26
2022-10-11T05:57:43.013Z,65.55
2022-10-11T06:02:45.665Z,59.16
2022-10-11T06:07:48.864Z,56.88
2022-10-11T06:12:51.841Z,62.08
2022-10-11T06:17:54.611Z,65.88
2022-10-11T06:22:58.929Z,58.37
2022-10-11T06:28:01.750Z,56.47
2022-10-11T06:33:05.077Z,60.37
2022-10-11T06:38:08.030Z,65.94
2022-10-11T06:43:10.825Z,57.92
2022-10-11T06:48:13.758Z,61.00
2022-10-11T06:53:16.455Z,65.41
2022-10-11T06:58:19.274Z,56.93
2022-10-11T07:03:22.231Z,57.66
2022-10-11T07:08:25.037Z,63.32
2022-10-11T07:13:28.247Z,58.07
2022-10-11T07:18:32.310Z,56.41
2022-10-11T07:23:35.387Z,63.02
2022-10-11T07:28:39.857Z,57.98
2022-10-11T07:33:42.951Z,58.55
2022-10-11T07:38:46.983Z,62.52
2022-10-11T07:43:52.237Z,56.18
2022-10-11T07:48:55.261Z,60.42
2022-10-11T07:53:59.771Z,63.44
2022-10-11T07:59:05.119Z,55.00
2022-10-11T08:04:07.945Z,57.62
2022-10-11T08:09:10.662Z,61.23
2022-10-11T08:14:13.398Z,63.35
2022-10-11T08:19:18.620Z,55.69
2022-10-11T08:24:21.416Z,59.93
2022-10-11T08:29:24.164Z,61.28
2022-10-11T08:34:26.993Z,62.53
2022-10-11T08:39:30.097Z,54.95
2022-10-11T08:44:58.275Z,58.21
2022-10-11T08:50:00.188Z,60.63
2022-10-11T08:55:12.529Z,61.54
2022-10-11T09:00:18.845Z,61.72
2022-10-11T09:05:25.654Z,64.95
2022-10-11T09:10:31.139Z,53.25
2022-10-11T09:15:43.875Z,54.03
2022-10-11T09:21:16.971Z,55.53
2022-10-11T09:26:29.845Z,57.47
2022-10-11T09:31:32.989Z,57.60
2022-10-11T09:36:54.383Z,57.69
2022-10-11T09:42:01.763Z,57.02
2022-10-11T09:47:06.224Z,57.45
2022-10-11T09:52:16.576Z,57.18
2022-10-11T09:57:36.534Z,56.31
2022-10-11T10:02:48.814Z,56.43
2022-10-11T10:08:09.839Z,55.64
2022-10-11T10:13:23.407Z,55.22
2022-10-11T10:18:32.202Z,55.01
2022-10-11T10:23:36.805Z,54.06
2022-10-11T10:28:53.763Z,52.98
2022-10-11T10:33:57.955Z,51.80
2022-10-11T10:39:36.359Z,50.08
2022-10-11T10:44:39.093Z,50.04
2022-10-11T10:50:01.260Z,49.93
2022-10-11T10:55:24.266Z,48.51
2022-10-11T11:00:36.300Z,48.66
2022-10-11T11:05:54.055Z,47.01
2022-10-11T11:11:34.491Z,45.89
2022-10-11T11:17:06.043Z,45.57
2022-10-11T11:22:32.497Z,45.32
2022-10-11T11:27:47.547Z,44.25
2022-10-11T11:33:10.482Z,40.56
2022-10-11T11:38:29.433Z,40.56
2022-10-11T11:44:00.952Z,41.86
2022-10-11T11:49:13.152Z,42.77
2022-10-11T11:54:44.911Z,43.16
2022-10-11T11:59:50.063Z,43.27
2022-10-11T12:04:53.336Z,40.71
2022-10-11T12:10:19.172Z,37.94
2022-10-11T12:15:26.217Z,34.43
2022-10-11T12:20:37.959Z,32.68
2022-10-11T12:25:42.467Z,29.06
2022-10-11T12:30:47.939Z,29.02
2022-10-11T12:35:53.441Z,29.69
2022-10-11T12:41:13.367Z,29.33
2022-10-11T12:46:28.130Z,31.09
2022-10-11T12:51:50.640Z,32.89
2022-10-11T12:57:12.188Z,35.19
2022-10-11T13:02:35.073Z,37.35
2022-10-11T13:07:41.443Z,39.34
2022-10-11T13:12:47.804Z,40.78
2022-10-11T13:17:52.908Z,42.35
2022-10-11T13:22:56.723Z,44.73
2022-10-11T13:27:59.655Z,46.11
2022-10-11T13:33:06.615Z,47.58
2022-10-11T13:38:18.338Z,48.75
2022-10-11T13:43:24.955Z,48.83
2022-10-11T13:48:31.676Z,49.46
2022-10-11T13:53:35.664Z,49.12
2022-10-11T13:58:47.723Z,49.07
2022-10-11T14:03:58.972Z,49.65
2022-10-11T14:09:01.974Z,49.61
2022-10-11T14:14:28.187Z,49.72
2022-10-11T14:19:30.722Z,49.89
2022-10-11T14:24:33.370Z,49.84
2022-10-11T14:29:39.601Z,50.18
2022-10-11T14:34:47.721Z,50.06
2022-10-11T14:39:50.943Z,50.59
2022-10-11T14:44:53.648Z,50.88
2022-10-11T14:49:56.532Z,50.56
2022-10-11T14:54:59.233Z,50.17
2022-10-11T15:00:02.592Z,50.56
2022-10-11T15:05:06.266Z,50.25
2022-10-11T15:10:20.432Z,50.42
2022-10-11T15:15:25.654Z,50.92
2022-10-11T15:20:33.350Z,51.27
2022-10-11T15:25:37.823Z,51.68
2022-10-11T15:30:41.898Z,52.02
2022-10-11T15:35:44.885Z,52.33
2022-10-11T15:40:49.257Z,52.75
2022-10-11T15:45:52.290Z,53.15
2022-10-11T15:50:55.462Z,53.33
2022-10-11T15:56:02.079Z,53.45
2022-10-11T16:01:09.346Z,53.58
2022-10-11T16:06:13.347Z,54.07
2022-10-11T16:11:16.189Z,54.25
2022-10-11T16:16:18.949Z,54.60
2022-10-11T16:21:23.598Z,54.77
2022-10-11T16:26:26.310Z,54.98
2022-10-11T16:31:29.005Z,55.05
2022-10-11T16:36:32.065Z,55.41
2022-10-11T16:41:35.121Z,55.57
2022-10-11T16:46:37.921Z,55.77
2022-10-11T16:51:40.811Z,55.86
2022-10-11T16:56:43.849Z,56.00
2022-10-11T17:01:46.562Z,56.49
2022-10-11T17:06:49.849Z,56.68
2022-10-11T17:11:52.751Z,57.12
2022-10-11T17:16:55.362Z,57.58
2022-10-11T17:21:58.142Z,57.58
2022-10-11T17:27:00.716Z,57.76
2022-10-11T17:32:03.931Z,57.93
2022-10-11T17:37:08.966Z,58.28
2022-10-11T17:42:11.806Z,58.40
2022-10-11T17:47:15.130Z,58.67
2022-10-11T17:52:17.754Z,58.96
2022-10-11T17:57:20.513Z,59.51
2022-10-11T18:02:23.129Z,60.36
2022-10-11T18:07:25.808Z,71.69
2022-10-11T18:12:28.475Z,64.38
2022-10-11T18:17:31.216Z,53.11
2022-10-11T18:22:34.073Z,51.61
2022-10-11T18:27:36.762Z,52.86
2022-10-11T18:32:39.608Z,55.05
2022-10-11T18:37:42.512Z,56.38
2022-10-11T18:42:45.136Z,57.73
2022-10-11T18:47:51.306Z,59.03
2022-10-11T18:52:54.070Z,59.23
2022-10-11T18:57:57.811Z,70.36
2022-10-11T19:03:00.444Z,62.43
2022-10-11T19:08:03.087Z,51.81
2022-10-11T19:13:05.799Z,52.03
2022-10-11T19:18:09.258Z,54.79
2022-10-11T19:23:11.920Z,57.75
2022-10-11T19:28:15.816Z,58.41
2022-10-11T19:33:18.711Z,60.54
2022-10-11T19:43:29.162Z,64.11
2022-10-11T19:48:32.991Z,53.49
2022-10-11T19:53:36.314Z,53.14
2022-10-11T19:58:39.804Z,55.02
2022-10-11T20:03:44.033Z,56.65
2022-10-11T20:08:59.819Z,58.70
2022-10-11T20:14:08.789Z,59.48
2022-10-11T20:19:11.467Z,70.44
2022-10-11T20:24:14.200Z,61.26
2022-10-11T20:29:16.903Z,51.09
2022-10-11T20:34:19.496Z,52.37
2022-10-11T20:39:22.179Z,53.51
2022-10-11T20:44:24.918Z,56.59
2022-10-11T20:49:27.999Z,56.87
2022-10-11T20:54:30.905Z,57.86
2022-10-11T20:59:33.528Z,59.26
2022-10-11T21:04:36.306Z,60.32
2022-10-11T21:09:39.001Z,72.34
2022-10-11T21:14:42.312Z,62.18
2022-10-11T21:19:44.946Z,50.76
2022-10-11T21:24:47.531Z,51.19
2022-10-11T21:29:51.222Z,53.25
2022-10-11T21:34:53.826Z,56.55
2022-10-11T21:39:56.523Z,58.85
2022-10-11T21:44:59.155Z,58.90
2022-10-11T21:50:01.923Z,59.44
2022-10-11T21:55:05.210Z,70.71
2022-10-11T22:00:08.927Z,61.57
2022-10-11T22:05:11.598Z,52.11
2022-10-11T22:10:14.865Z,53.31
2022-10-11T22:15:17.563Z,54.59
2022-10-11T22:20:20.262Z,56.25
2022-10-11T22:25:23.070Z,58.15
2022-10-11T22:30:25.728Z,60.44
2022-10-11T22:35:29.672Z,71.07
2022-10-11T22:40:34.129Z,61.98
2022-10-11T22:45:36.742Z,51.77
2022-10-11T22:50:39.833Z,52.78
2022-10-11T22:55:42.735Z,54.37
2022-10-11T23:00:45.382Z,56.53
2022-10-11T23:05:58.298Z,57.67
2022-10-11T23:11:08.038Z,59.04
2022-10-11T23:16:12.441Z,71.52
2022-10-11T23:21:15.125Z,61.50
2022-10-11T23:26:17.754Z,51.22
2022-10-11T23:31:20.879Z,52.75
2022-10-11T23:36:25.525Z,53.93
2022-10-11T23:41:29.781Z,55.15
2022-10-11T23:46:32.417Z,57.66
2022-10-11T23:51:35.153Z,59.70
2022-10-11T23:56:38.243Z,70.62
